Terminal Aerodrome Forecast
Issued by NWS

Home | Current Version | Previous Version | Text Only | Print | Product List | Glossary On
Versions: 1 2 3 4 5 6 7 8 9 10 11 12 13 14 15 16 17 18
000
FTUS46 KSEW 280542
TAFHQM
TAF
KHQM 280542Z 2806/2906 22008KT P6SM OVC025
     FM281000 22008KT P6SM OVC015
     FM281900 24008KT P6SM OVC025
     FM282100 23008KT P6SM SCT035
     FM290000 28010KT P6SM SCT035=

USA.gov is the U.S. government's official web portal to all federal, state and local government web resources and services.